createdAt,value
2019-05-10T00:00:16.134Z,72.03
2019-05-10T00:03:04.194Z,72.37
2019-05-10T00:05:50.909Z,72.89
2019-05-10T00:08:37.615Z,73.29
2019-05-10T00:11:35.281Z,73.40
2019-05-10T00:14:25.842Z,73.56
2019-05-10T00:16:58.282Z,74.19
2019-05-10T00:19:27.446Z,74.71
2019-05-10T00:21:56.598Z,74.51
2019-05-10T00:24:25.751Z,74.53
2019-05-10T00:26:54.978Z,74.79
2019-05-10T00:29:24.107Z,74.71
2019-05-10T00:31:53.248Z,75.97
2019-05-10T00:34:22.437Z,75.23
2019-05-10T00:36:51.563Z,75.21
2019-05-10T00:39:20.840Z,74.56
2019-05-10T00:41:50.039Z,75.06
2019-05-10T00:44:19.184Z,75.37
2019-05-10T00:46:48.369Z,75.32
2019-05-10T00:49:17.558Z,75.05
2019-05-10T00:51:46.701Z,74.69
2019-05-10T00:54:15.878Z,76.03
2019-05-10T00:56:45.028Z,75.84
2019-05-10T00:59:14.217Z,75.47
2019-05-10T01:01:43.351Z,74.71
2019-05-10T01:04:12.526Z,74.88
2019-05-10T01:06:41.682Z,74.67
2019-05-10T01:09:13.273Z,75.66
2019-05-10T01:11:42.432Z,76.53
2019-05-10T01:14:11.592Z,76.05
2019-05-10T01:16:40.756Z,76.85
2019-05-10T01:19:09.900Z,76.50
2019-05-10T01:21:39.043Z,76.43
2019-05-10T01:24:08.186Z,76.74
2019-05-10T01:26:37.348Z,76.54
2019-05-10T01:29:06.502Z,75.80
2019-05-10T01:31:35.659Z,74.92
2019-05-10T01:34:04.772Z,75.83
2019-05-10T01:36:33.934Z,76.16
2019-05-10T01:39:03.522Z,75.83
2019-05-10T01:41:32.680Z,76.04
2019-05-10T01:44:01.886Z,76.38
2019-05-10T01:46:30.989Z,76.01
2019-05-10T01:49:00.138Z,75.75
2019-05-10T01:51:29.266Z,75.18
2019-05-10T01:53:58.411Z,76.33
2019-05-10T01:56:27.542Z,76.01
2019-05-10T01:58:56.667Z,76.06
2019-05-10T02:01:26.117Z,76.10
2019-05-10T02:03:55.236Z,76.49
2019-05-10T02:06:24.384Z,76.74
2019-05-10T02:08:53.534Z,76.91
2019-05-10T02:11:22.676Z,76.85
2019-05-10T02:13:51.919Z,76.59
2019-05-10T02:16:21.017Z,76.77
2019-05-10T02:18:50.127Z,77.60
2019-05-10T02:21:19.270Z,77.21
2019-05-10T02:23:48.387Z,77.05
2019-05-10T02:26:17.562Z,76.98
2019-05-10T02:28:46.705Z,76.86
2019-05-10T02:31:20.722Z,76.26
2019-05-10T02:33:46.697Z,76.39
2019-05-10T02:36:15.828Z,76.42
2019-05-10T02:38:44.951Z,76.48
2019-05-10T02:41:14.091Z,76.45
2019-05-10T02:43:43.261Z,76.37
2019-05-10T02:46:12.393Z,76.05
2019-05-10T02:48:41.528Z,74.78
2019-05-10T02:51:10.690Z,74.48
2019-05-10T02:53:40.038Z,74.78
2019-05-10T02:56:28.724Z,75.03
2019-05-10T02:58:40.054Z,75.17
2019-05-10T03:01:11.091Z,75.29
2019-05-10T03:03:42.951Z,75.36
2019-05-10T03:06:15.154Z,74.83
2019-05-10T03:08:49.550Z,74.95
2019-05-10T03:11:18.798Z,75.21
2019-05-10T03:13:52.375Z,74.93
2019-05-10T03:16:23.507Z,74.97
2019-05-10T03:18:53.752Z,75.05
2019-05-10T03:21:24.623Z,75.07
2019-05-10T03:23:53.777Z,74.96
2019-05-10T03:26:22.976Z,74.96
2019-05-10T03:28:52.393Z,75.00
2019-05-10T03:31:21.546Z,74.82
2019-05-10T03:33:56.383Z,74.76
2019-05-10T03:36:21.528Z,74.60
2019-05-10T03:38:50.684Z,74.52
2019-05-10T03:41:19.829Z,74.54
2019-05-10T03:43:48.951Z,74.50
2019-05-10T03:46:18.145Z,74.68
2019-05-10T03:48:47.359Z,74.69
2019-05-10T03:51:16.488Z,74.74
2019-05-10T03:53:45.600Z,74.89
2019-05-10T03:56:14.715Z,74.89
2019-05-10T03:58:43.847Z,74.86
2019-05-10T04:01:13.193Z,74.90
2019-05-10T04:03:42.293Z,74.85
2019-05-10T04:06:11.404Z,74.80
2019-05-10T04:08:40.525Z,74.97
2019-05-10T04:11:09.654Z,74.94
2019-05-10T04:13:38.762Z,74.90
2019-05-10T04:16:07.926Z,74.97
2019-05-10T04:18:37.101Z,75.28
2019-05-10T04:21:06.204Z,75.27
2019-05-10T04:23:35.303Z,75.46
2019-05-10T04:26:04.432Z,75.48
2019-05-10T04:28:33.571Z,75.61
2019-05-10T04:31:02.726Z,75.61
2019-05-10T04:33:31.960Z,75.78
2019-05-10T04:36:01.142Z,75.90
2019-05-10T04:38:30.244Z,76.15
2019-05-10T04:40:59.382Z,76.06
2019-05-10T04:43:28.500Z,75.92
2019-05-10T04:45:57.646Z,75.85
2019-05-10T04:48:26.759Z,76.37
2019-05-10T04:50:55.875Z,76.69
2019-05-10T04:53:25.018Z,76.66
2019-05-10T04:55:54.254Z,76.72
2019-05-10T04:58:23.352Z,76.77
2019-05-10T05:00:52.468Z,76.53
2019-05-10T05:03:21.599Z,76.46
2019-05-10T05:05:50.733Z,76.62
2019-05-10T05:08:19.839Z,76.73
2019-05-10T05:10:48.958Z,76.90
2019-05-10T05:13:18.103Z,76.84
2019-05-10T05:15:47.222Z,76.61
2019-05-10T05:18:16.343Z,76.11
2019-05-10T05:20:45.457Z,76.43
2019-05-10T05:23:14.591Z,76.27
2019-05-10T05:25:43.703Z,76.37
2019-05-10T05:28:12.858Z,76.31
2019-05-10T05:30:41.973Z,76.32
2019-05-10T05:33:11.131Z,75.79
2019-05-10T05:35:40.264Z,75.70
2019-05-10T05:38:09.392Z,75.75
2019-05-10T05:40:38.591Z,75.65
2019-05-10T05:43:08.437Z,75.26
2019-05-10T05:45:37.916Z,75.33
2019-05-10T05:48:07.033Z,75.25
2019-05-10T05:50:36.140Z,75.27
2019-05-10T05:53:05.264Z,74.54
2019-05-10T05:55:34.406Z,74.58
2019-05-10T05:58:05.224Z,74.47
2019-05-10T06:00:37.593Z,73.57
2019-05-10T06:03:08.010Z,73.88
2019-05-10T06:05:37.508Z,74.19
2019-05-10T06:08:21.446Z,73.94
2019-05-10T06:10:38.058Z,73.49
2019-05-10T06:13:07.203Z,73.76
2019-05-10T06:15:36.341Z,72.29
2019-05-10T06:18:09.878Z,72.15
2019-05-10T06:20:38.314Z,72.53
2019-05-10T06:23:07.438Z,72.76
2019-05-10T06:25:40.202Z,72.22
2019-05-10T06:28:25.039Z,72.54
2019-05-10T06:30:38.340Z,73.39
2019-05-10T06:33:12.781Z,72.88
2019-05-10T06:35:38.341Z,73.42
2019-05-10T06:38:07.463Z,73.61
2019-05-10T06:40:44.786Z,74.19
2019-05-10T06:43:13.476Z,74.29
2019-05-10T06:45:38.340Z,74.43
2019-05-10T06:48:07.469Z,74.53
2019-05-10T06:50:36.603Z,74.59
2019-05-10T06:53:10.516Z,74.57
2019-05-10T06:55:36.903Z,74.48
2019-05-10T06:58:06.013Z,75.13
2019-05-10T07:00:38.262Z,74.09
2019-05-10T07:03:06.064Z,74.21
2019-05-10T07:05:35.203Z,74.31
2019-05-10T07:08:13.165Z,74.46
2019-05-10T07:10:35.175Z,74.23
2019-05-10T07:13:06.623Z,74.11
2019-05-10T07:15:35.623Z,74.10
2019-05-10T07:18:06.000Z,73.75
2019-05-10T07:20:35.133Z,73.93
2019-05-10T07:23:06.034Z,74.24
2019-05-10T07:25:37.894Z,74.53
2019-05-10T07:28:09.510Z,74.44
2019-05-10T07:30:41.495Z,74.81
2019-05-10T07:33:08.901Z,74.49
2019-05-10T07:35:38.799Z,74.30
2019-05-10T07:38:08.118Z,73.55
2019-05-10T07:40:37.239Z,74.04
2019-05-10T07:43:06.356Z,73.89
2019-05-10T07:45:35.549Z,73.81
2019-05-10T07:48:08.295Z,74.10
2019-05-10T07:50:35.517Z,74.27
2019-05-10T07:53:04.653Z,74.84
2019-05-10T07:55:33.827Z,73.92
2019-05-10T07:58:04.925Z,74.05
2019-05-10T08:00:38.007Z,74.02
2019-05-10T08:03:15.189Z,74.20
2019-05-10T08:05:35.658Z,73.82
2019-05-10T08:08:04.914Z,74.26
2019-05-10T08:10:34.054Z,74.24
2019-05-10T08:13:03.699Z,74.44
2019-05-10T08:15:34.783Z,74.75
2019-05-10T08:18:03.729Z,74.65
2019-05-10T08:20:46.591Z,75.10
2019-05-10T08:23:03.733Z,74.95
2019-05-10T08:25:36.341Z,74.84
2019-05-10T08:28:05.518Z,75.02
2019-05-10T08:30:42.506Z,74.21
2019-05-10T08:33:10.882Z,74.67
2019-05-10T08:35:43.625Z,74.09
2019-05-10T08:38:12.717Z,73.82
2019-05-10T08:40:42.735Z,73.84
2019-05-10T08:43:16.108Z,73.66
2019-05-10T08:45:45.030Z,73.16
2019-05-10T08:48:13.868Z,73.18
2019-05-10T08:50:52.767Z,73.70
2019-05-10T08:53:16.328Z,73.30
2019-05-10T08:55:44.882Z,72.78
2019-05-10T08:58:14.005Z,72.11
2019-05-10T09:00:53.857Z,72.38
2019-05-10T09:03:18.520Z,72.28
2019-05-10T09:05:44.807Z,71.19
2019-05-10T09:08:20.247Z,71.31
2019-05-10T09:10:44.810Z,70.49
2019-05-10T09:13:14.102Z,69.97
2019-05-10T09:15:51.789Z,70.49
2019-05-10T09:18:14.056Z,69.89
2019-05-10T09:20:43.188Z,69.40
2019-05-10T09:23:15.459Z,68.43
2019-05-10T09:25:43.176Z,68.79
2019-05-10T09:28:16.776Z,66.05
2019-05-10T09:30:56.939Z,66.80
2019-05-10T09:33:14.676Z,65.09
2019-05-10T09:35:47.591Z,64.95
2019-05-10T09:38:14.755Z,65.45
2019-05-10T09:40:51.114Z,64.82
2019-05-10T09:43:15.144Z,64.92
2019-05-10T09:45:44.286Z,64.54
2019-05-10T09:48:13.403Z,64.22
2019-05-10T09:50:47.038Z,64.08
2019-05-10T09:53:18.224Z,64.47
2019-05-10T09:55:45.649Z,63.97
2019-05-10T09:58:15.205Z,64.04
2019-05-10T10:00:44.396Z,63.88
2019-05-10T10:03:13.515Z,63.51
2019-05-10T10:05:42.981Z,63.63
2019-05-10T10:08:12.166Z,64.00
2019-05-10T10:10:41.405Z,64.38
2019-05-10T10:13:13.439Z,64.61
2019-05-10T10:15:41.415Z,64.38
2019-05-10T10:18:12.659Z,64.71
2019-05-10T10:20:45.006Z,65.11
2019-05-10T10:23:12.371Z,64.55
2019-05-10T10:25:42.287Z,65.15
2019-05-10T10:28:17.001Z,65.37
2019-05-10T10:30:42.477Z,65.10
2019-05-10T10:33:17.787Z,64.79
2019-05-10T10:35:42.481Z,64.44
2019-05-10T10:38:11.651Z,63.68
2019-05-10T10:40:44.807Z,63.58
2019-05-10T10:43:11.744Z,62.61
2019-05-10T10:45:40.849Z,62.24
2019-05-10T10:48:12.729Z,60.63
2019-05-10T10:50:44.506Z,59.82
2019-05-10T10:53:11.692Z,56.97
2019-05-10T10:55:48.519Z,54.63
2019-05-10T10:58:11.654Z,55.25
2019-05-10T11:00:40.798Z,54.19
2019-05-10T11:03:09.941Z,54.06
2019-05-10T11:05:39.088Z,53.11
2019-05-10T11:08:08.265Z,52.70
2019-05-10T11:10:38.163Z,51.88
2019-05-10T11:13:12.106Z,52.08
2019-05-10T11:15:38.187Z,52.31
2019-05-10T11:18:07.323Z,52.61
2019-05-10T11:20:36.462Z,53.34
2019-05-10T11:23:05.582Z,53.88
2019-05-10T11:25:34.692Z,54.17
2019-05-10T11:28:03.928Z,54.03
2019-05-10T11:30:33.243Z,53.35
2019-05-10T11:33:02.446Z,54.37
2019-05-10T11:35:34.470Z,55.03
2019-05-10T11:38:06.860Z,54.88
2019-05-10T11:40:35.134Z,55.02
2019-05-10T11:43:04.225Z,54.66
2019-05-10T11:45:35.486Z,54.72
2019-05-10T11:48:04.362Z,55.20
2019-05-10T11:50:35.562Z,54.71
2019-05-10T11:53:06.787Z,55.01
2019-05-10T11:55:39.780Z,55.05
2019-05-10T11:58:08.894Z,54.99
2019-05-10T12:00:38.070Z,54.46
2019-05-10T12:03:12.638Z,54.85
2019-05-10T12:05:38.136Z,54.04
2019-05-10T12:08:07.291Z,53.78
2019-05-10T12:10:44.872Z,53.82
2019-05-10T12:13:15.899Z,53.66
2019-05-10T12:15:42.574Z,53.54
2019-05-10T12:18:14.299Z,52.54
2019-05-10T12:20:54.104Z,52.48
2019-05-10T12:23:13.242Z,51.65
2019-05-10T12:25:53.106Z,51.20
2019-05-10T12:28:15.476Z,51.30
2019-05-10T12:30:43.643Z,51.10
2019-05-10T12:33:23.966Z,51.19
2019-05-10T12:35:47.293Z,50.96
2019-05-10T12:38:14.554Z,50.54
2019-05-10T12:40:45.860Z,50.37
2019-05-10T12:43:14.554Z,50.05
2019-05-10T12:45:43.689Z,49.61
2019-05-10T12:48:12.828Z,49.88
2019-05-10T12:50:44.253Z,49.32
2019-05-10T12:53:17.873Z,49.36
2019-05-10T12:55:43.772Z,49.55
2019-05-10T12:58:12.918Z,49.48
2019-05-10T13:00:46.322Z,49.38
2019-05-10T13:03:13.631Z,49.23
2019-05-10T13:05:52.131Z,49.37
2019-05-10T13:08:13.813Z,49.53
2019-05-10T13:10:44.192Z,49.42
2019-05-10T13:13:17.635Z,49.34
2019-05-10T13:15:44.722Z,49.02
2019-05-10T13:18:13.913Z,48.92
2019-05-10T13:20:43.069Z,48.87
2019-05-10T13:23:16.136Z,49.36
2019-05-10T13:25:43.099Z,49.40
2019-05-10T13:28:12.265Z,49.06
2019-05-10T13:30:41.415Z,49.32
2019-05-10T13:33:10.614Z,49.34
2019-05-10T13:35:39.889Z,47.87
2019-05-10T13:38:09.033Z,48.45
2019-05-10T13:40:45.321Z,48.54
2019-05-10T13:43:09.051Z,48.34
2019-05-10T13:45:39.617Z,48.74
2019-05-10T13:48:08.913Z,48.04
2019-05-10T13:50:38.039Z,47.19
2019-05-10T13:53:19.713Z,47.43
2019-05-10T13:55:38.122Z,47.12
2019-05-10T13:58:07.313Z,47.32
2019-05-10T14:00:36.438Z,47.28
2019-05-10T14:03:11.370Z,47.21
2019-05-10T14:05:39.815Z,45.90
2019-05-10T14:08:07.457Z,46.23
2019-05-10T14:10:36.669Z,45.04
2019-05-10T14:13:05.774Z,45.37
2019-05-10T14:15:34.942Z,45.28
2019-05-10T14:18:04.080Z,45.04
2019-05-10T14:20:33.282Z,45.09
2019-05-10T14:23:02.417Z,45.29
2019-05-10T14:25:36.490Z,45.04
2019-05-10T14:28:02.568Z,44.46
2019-05-10T14:30:31.721Z,44.25
2019-05-10T14:33:00.923Z,44.72
2019-05-10T14:35:30.169Z,45.14
2019-05-10T14:38:07.317Z,45.13
2019-05-10T14:40:30.799Z,45.07
2019-05-10T14:43:00.343Z,44.57
2019-05-10T14:45:29.447Z,45.02
2019-05-10T14:47:58.642Z,45.52
2019-05-10T14:50:28.551Z,45.65
2019-05-10T14:52:57.841Z,46.19
2019-05-10T14:55:33.663Z,45.98
2019-05-10T14:57:57.861Z,46.23
2019-05-10T15:00:27.121Z,46.38
2019-05-10T15:02:56.659Z,46.02
2019-05-10T15:05:27.138Z,46.67
2019-05-10T15:07:56.292Z,46.88
2019-05-10T15:10:25.426Z,46.67
2019-05-10T15:12:54.579Z,47.33
2019-05-10T15:15:23.720Z,47.60
2019-05-10T15:17:59.303Z,47.71
2019-05-10T15:20:23.818Z,47.65
2019-05-10T15:22:52.961Z,48.04
2019-05-10T15:25:22.122Z,48.74
2019-05-10T15:27:54.601Z,48.78
2019-05-10T15:30:22.112Z,48.80
2019-05-10T15:32:51.260Z,48.91
2019-05-10T15:35:20.418Z,49.15
2019-05-10T15:37:49.609Z,49.29
2019-05-10T15:40:18.876Z,49.37
2019-05-10T15:42:48.052Z,49.28
2019-05-10T15:45:19.511Z,49.27
2019-05-10T15:47:51.633Z,50.32
2019-05-10T15:50:19.243Z,50.75
2019-05-10T15:52:48.822Z,51.34
2019-05-10T15:55:26.847Z,52.11
2019-05-10T15:57:51.877Z,51.64
2019-05-10T16:00:24.846Z,52.36
2019-05-10T16:02:53.376Z,52.44
2019-05-10T16:05:29.332Z,51.89
2019-05-10T16:07:53.202Z,50.73
2019-05-10T16:10:28.520Z,51.06
2019-05-10T16:12:53.374Z,50.76
2019-05-10T16:15:22.631Z,49.61
2019-05-10T16:17:53.794Z,49.68
2019-05-10T16:20:22.657Z,49.01
2019-05-10T16:22:51.972Z,48.94
2019-05-10T16:25:21.135Z,49.04
2019-05-10T16:27:50.340Z,48.83
2019-05-10T16:30:20.416Z,48.41
2019-05-10T16:32:49.542Z,49.04
2019-05-10T16:35:21.928Z,48.88
2019-05-10T16:37:49.618Z,49.14
2019-05-10T16:40:19.101Z,49.11
2019-05-10T16:42:48.383Z,49.36
2019-05-10T16:45:17.548Z,49.24
2019-05-10T16:47:46.688Z,49.58
2019-05-10T16:50:15.883Z,49.34
2019-05-10T16:52:45.031Z,49.59
2019-05-10T16:55:14.173Z,49.65
2019-05-10T16:57:43.427Z,50.01
2019-05-10T17:00:12.955Z,50.13
2019-05-10T17:02:43.880Z,50.34
2019-05-10T17:05:15.143Z,50.58
2019-05-10T17:07:44.315Z,50.43
2019-05-10T17:10:14.873Z,50.57
2019-05-10T17:12:44.042Z,51.34
2019-05-10T17:15:13.344Z,51.34
2019-05-10T17:17:44.850Z,51.23
2019-05-10T17:20:15.504Z,51.16
2019-05-10T17:22:44.492Z,50.72
2019-05-10T17:25:13.673Z,50.69
2019-05-10T17:27:43.030Z,51.04
2019-05-10T17:30:13.442Z,51.58
2019-05-10T17:32:42.589Z,51.46
2019-05-10T17:35:11.803Z,51.52
2019-05-10T17:37:41.009Z,51.82
2019-05-10T17:40:12.076Z,51.89
2019-05-10T17:42:43.050Z,51.85
2019-05-10T17:45:12.367Z,51.96
2019-05-10T17:47:41.549Z,52.05
2019-05-10T17:50:10.939Z,52.06
2019-05-10T17:52:40.125Z,51.94
2019-05-10T17:55:16.845Z,52.09
2019-05-10T17:57:40.273Z,52.23
2019-05-10T18:00:10.136Z,52.67
2019-05-10T18:02:39.250Z,53.08
2019-05-10T18:05:08.951Z,53.58
2019-05-10T18:07:38.108Z,54.10
2019-05-10T18:10:08.232Z,54.56
2019-05-10T18:12:37.378Z,54.94
2019-05-10T18:15:07.026Z,55.39
2019-05-10T18:17:36.181Z,55.88
2019-05-10T18:20:05.863Z,56.20
2019-05-10T18:22:42.820Z,56.37
2019-05-10T18:25:06.479Z,56.84
2019-05-10T18:27:35.692Z,57.29
2019-05-10T18:30:05.234Z,57.85
2019-05-10T18:32:35.393Z,58.53
2019-05-10T18:35:13.231Z,59.08
2019-05-10T18:37:36.911Z,59.43
2019-05-10T18:40:06.266Z,59.67
2019-05-10T18:42:35.379Z,60.10
2019-05-10T18:45:04.944Z,60.32
2019-05-10T18:47:34.082Z,60.26
2019-05-10T18:50:03.212Z,59.82
2019-05-10T18:52:32.364Z,59.65
2019-05-10T18:55:01.802Z,59.77
2019-05-10T18:57:30.917Z,59.84
2019-05-10T19:00:00.131Z,60.07
2019-05-10T19:02:29.310Z,60.36
2019-05-10T19:04:58.490Z,60.72
2019-05-10T19:07:27.656Z,60.90
2019-05-10T19:09:56.780Z,60.92
2019-05-10T19:12:26.199Z,61.08
2019-05-10T19:14:55.417Z,61.46
2019-05-10T19:17:24.683Z,61.78
2019-05-10T19:19:53.856Z,62.08
2019-05-10T19:22:23.004Z,62.31
2019-05-10T19:24:52.116Z,62.55
2019-05-10T19:27:24.751Z,62.76
2019-05-10T19:29:52.129Z,63.13
2019-05-10T19:32:21.266Z,63.40
2019-05-10T19:34:57.325Z,63.46
2019-05-10T19:37:31.568Z,63.93
2019-05-10T19:39:52.209Z,64.20
2019-05-10T19:42:21.349Z,64.54
2019-05-10T19:44:50.466Z,64.63
2019-05-10T19:47:20.065Z,64.78
2019-05-10T19:49:51.714Z,64.92
2019-05-10T19:52:26.268Z,65.18
2019-05-10T19:54:51.094Z,65.14
2019-05-10T19:57:20.206Z,65.13
2019-05-10T19:59:50.303Z,65.09
2019-05-10T20:02:19.708Z,65.24
2019-05-10T20:04:49.899Z,65.18
2019-05-10T20:07:19.046Z,65.15
2019-05-10T20:09:48.169Z,65.30
2019-05-10T20:12:17.324Z,65.53
2019-05-10T20:14:46.542Z,65.50
2019-05-10T20:17:15.817Z,65.83
2019-05-10T20:19:45.106Z,65.87
2019-05-10T20:22:14.937Z,65.85
2019-05-10T20:24:44.112Z,66.09
2019-05-10T20:27:13.302Z,66.11
2019-05-10T20:29:42.447Z,66.12
2019-05-10T20:32:11.600Z,66.10
2019-05-10T20:34:40.733Z,66.07
2019-05-10T20:37:09.970Z,66.16
2019-05-10T20:39:39.070Z,66.19
2019-05-10T20:42:08.261Z,66.25
2019-05-10T20:44:37.396Z,66.21
2019-05-10T20:47:06.537Z,66.30
2019-05-10T20:49:35.722Z,66.28
2019-05-10T20:52:04.893Z,66.47
2019-05-10T20:54:34.061Z,66.79
2019-05-10T20:57:03.211Z,66.83
2019-05-10T20:59:32.350Z,66.88
2019-05-10T21:02:01.476Z,66.89
2019-05-10T21:04:30.674Z,67.02
2019-05-10T21:06:59.826Z,67.01
2019-05-10T21:09:28.950Z,66.99
2019-05-10T21:11:58.073Z,67.13
2019-05-10T21:14:27.238Z,67.37
2019-05-10T21:16:56.367Z,67.41
2019-05-10T21:19:25.542Z,67.52
2019-05-10T21:21:54.729Z,67.77
2019-05-10T21:24:23.881Z,67.91
2019-05-10T21:26:52.999Z,68.05
2019-05-10T21:29:22.175Z,68.25
2019-05-10T21:31:51.323Z,68.26
2019-05-10T21:34:20.567Z,68.21
2019-05-10T21:36:49.740Z,68.19
2019-05-10T21:39:18.903Z,68.26
2019-05-10T21:41:48.195Z,68.35
2019-05-10T21:44:17.345Z,68.55
2019-05-10T21:46:46.515Z,68.54
2019-05-10T21:49:15.635Z,68.42
2019-05-10T21:51:44.779Z,68.38
2019-05-10T21:54:13.913Z,68.80
2019-05-10T21:56:43.099Z,69.07
2019-05-10T21:59:12.231Z,69.06
2019-05-10T22:01:41.403Z,69.10
2019-05-10T22:04:10.498Z,69.14
2019-05-10T22:06:39.631Z,69.27
2019-05-10T22:09:34.457Z,69.32
2019-05-10T22:12:03.614Z,69.44
2019-05-10T22:14:32.778Z,69.43
2019-05-10T22:17:02.052Z,69.57
2019-05-10T22:19:31.266Z,69.54
2019-05-10T22:22:03.197Z,69.66
2019-05-10T22:24:59.322Z,69.86
2019-05-10T22:27:28.421Z,69.97
2019-05-10T22:29:57.571Z,69.91
2019-05-10T22:32:26.699Z,70.00
2019-05-10T22:34:55.829Z,70.02
2019-05-10T22:37:24.961Z,70.32
2019-05-10T22:39:54.091Z,70.36
2019-05-10T22:42:23.226Z,70.52
2019-05-10T22:44:52.348Z,70.65
2019-05-10T22:47:25.094Z,70.87
2019-05-10T22:49:52.337Z,70.68
2019-05-10T22:52:21.472Z,70.71
2019-05-10T22:54:50.617Z,70.78
2019-05-10T22:57:19.767Z,70.82
2019-05-10T22:59:48.916Z,70.87
2019-05-10T23:02:18.072Z,70.92
2019-05-10T23:04:47.192Z,70.88
2019-05-10T23:07:16.343Z,70.78
2019-05-10T23:09:45.469Z,70.80
2019-05-10T23:12:14.671Z,71.04
2019-05-10T23:14:43.795Z,71.18
2019-05-10T23:17:12.946Z,71.21
2019-05-10T23:19:42.104Z,71.23
2019-05-10T23:22:11.244Z,71.34
2019-05-10T23:24:40.394Z,71.18
2019-05-10T23:27:09.614Z,71.18
2019-05-10T23:29:38.881Z,71.11
2019-05-10T23:32:08.015Z,71.25
2019-05-10T23:34:37.159Z,71.35
2019-05-10T23:37:06.310Z,71.49
2019-05-10T23:39:40.776Z,71.54
2019-05-10T23:42:06.365Z,71.54
2019-05-10T23:44:35.511Z,71.43
2019-05-10T23:47:04.668Z,71.61
2019-05-10T23:49:33.826Z,71.69
2019-05-10T23:52:03.165Z,71.74
2019-05-10T23:54:32.409Z,71.91
2019-05-10T23:57:01.548Z,72.37
2019-05-10T23:59:30.698Z,72.53
